createdAt,value
2022-10-26T00:02:46.435Z,22.60
2022-10-26T00:07:49.388Z,22.61
2022-10-26T00:12:53.511Z,22.61
2022-10-26T00:17:56.140Z,22.64
2022-10-26T00:22:58.896Z,22.62
2022-10-26T00:28:02.873Z,22.65
2022-10-26T00:33:05.526Z,22.64
2022-10-26T00:38:08.170Z,22.61
2022-10-26T00:43:16.085Z,22.64
2022-10-26T00:48:22.103Z,22.64
2022-10-26T00:53:24.724Z,22.61
2022-10-26T00:58:28.702Z,22.62
2022-10-26T01:03:32.057Z,22.64
2022-10-26T01:08:35.120Z,22.64
2022-10-26T01:13:39.667Z,22.62
2022-10-26T01:18:46.953Z,22.64
2022-10-26T01:24:00.090Z,22.62
2022-10-26T01:29:21.272Z,22.61
2022-10-26T01:34:26.228Z,22.64
2022-10-26T01:39:30.294Z,22.59
2022-10-26T01:44:36.939Z,22.62
2022-10-26T01:49:47.931Z,22.63
2022-10-26T01:54:50.560Z,22.62
2022-10-26T02:00:01.948Z,22.61
2022-10-26T02:05:18.016Z,22.59
2022-10-26T02:10:26.420Z,22.57
2022-10-26T02:15:33.407Z,22.54
2022-10-26T02:20:40.862Z,22.53
2022-10-26T02:25:46.359Z,22.48
2022-10-26T02:30:49.247Z,22.46
2022-10-26T02:35:53.910Z,22.45
2022-10-26T02:40:56.591Z,22.44
2022-10-26T02:46:01.858Z,22.41
2022-10-26T02:51:10.688Z,22.44
2022-10-26T02:56:16.518Z,22.41
2022-10-26T03:01:19.196Z,22.35
2022-10-26T03:06:23.871Z,22.36
2022-10-26T03:11:26.482Z,22.33
2022-10-26T03:16:29.153Z,22.35
2022-10-26T03:21:33.289Z,22.31
2022-10-26T03:26:35.948Z,22.35
2022-10-26T03:31:38.613Z,22.30
2022-10-26T03:36:42.787Z,22.33
2022-10-26T03:41:45.535Z,22.29
2022-10-26T03:46:48.304Z,22.28
2022-10-26T03:51:52.429Z,22.24
2022-10-26T03:56:55.422Z,22.26
2022-10-26T04:01:58.304Z,22.28
2022-10-26T04:07:02.488Z,22.25
2022-10-26T04:12:05.770Z,22.28
2022-10-26T04:17:08.402Z,22.21
2022-10-26T04:22:12.490Z,22.24
2022-10-26T04:27:15.280Z,22.17
2022-10-26T04:32:17.914Z,22.19
2022-10-26T04:37:22.265Z,22.14
2022-10-26T04:42:25.122Z,22.14
2022-10-26T04:47:27.797Z,22.12
2022-10-26T04:52:31.889Z,22.09
2022-10-26T04:57:35.109Z,22.07
2022-10-26T05:02:37.855Z,22.06
2022-10-26T05:07:41.917Z,22.05
2022-10-26T05:12:44.561Z,22.04
2022-10-26T05:17:47.548Z,22.01
2022-10-26T05:22:54.902Z,22.00
2022-10-26T05:27:58.899Z,21.99
2022-10-26T05:33:03.029Z,21.99
2022-10-26T05:38:10.034Z,21.94
2022-10-26T05:43:12.751Z,21.90
2022-10-26T05:48:15.405Z,21.85
2022-10-26T05:53:19.785Z,21.83
2022-10-26T05:58:23.042Z,21.80
2022-10-26T06:03:33.555Z,21.74
2022-10-26T06:08:38.260Z,21.66
2022-10-26T06:13:41.590Z,21.63
2022-10-26T06:18:46.357Z,21.61
2022-10-26T06:23:53.231Z,21.58
2022-10-26T06:29:00.569Z,21.40
2022-10-26T06:34:03.333Z,21.33
2022-10-26T06:39:08.956Z,21.34
2022-10-26T06:44:13.558Z,21.30
2022-10-26T06:49:19.519Z,21.23
2022-10-26T06:54:26.264Z,21.25
2022-10-26T06:59:36.201Z,21.20
2022-10-26T07:04:38.884Z,21.15
2022-10-26T07:09:42.972Z,21.11
2022-10-26T07:14:45.680Z,21.12
2022-10-26T07:19:48.368Z,21.05
2022-10-26T07:24:53.185Z,21.06
2022-10-26T07:29:55.852Z,21.06
2022-10-26T07:34:58.525Z,21.04
2022-10-26T07:40:06.441Z,21.04
2022-10-26T07:45:10.157Z,21.02
2022-10-26T07:50:12.945Z,21.00
2022-10-26T07:55:17.146Z,20.95
2022-10-26T08:00:19.926Z,20.93
2022-10-26T08:05:22.659Z,20.90
2022-10-26T08:10:26.738Z,20.87
2022-10-26T08:15:29.434Z,20.89
2022-10-26T08:20:32.171Z,20.87
2022-10-26T08:25:36.363Z,20.87
2022-10-26T08:30:39.165Z,20.85
2022-10-26T08:35:41.925Z,20.83
2022-10-26T08:40:45.947Z,20.84
2022-10-26T08:45:50.353Z,20.83
2022-10-26T08:50:54.583Z,20.83
2022-10-26T08:56:00.633Z,20.86
2022-10-26T09:01:05.337Z,20.47
2022-10-26T09:06:17.369Z,20.19
2022-10-26T09:11:26.603Z,20.09
2022-10-26T09:16:31.150Z,20.31
2022-10-26T09:21:39.428Z,20.41
2022-10-26T09:26:51.476Z,20.51
2022-10-26T09:31:54.557Z,20.58
2022-10-26T09:36:57.259Z,20.58
2022-10-26T09:42:02.845Z,20.61
2022-10-26T09:47:07.302Z,20.67
2022-10-26T09:57:20.019Z,20.76
2022-10-26T10:02:38.835Z,20.80
2022-10-26T10:07:41.584Z,20.81
2022-10-26T10:12:45.757Z,20.86
2022-10-26T10:17:52.269Z,20.88
2022-10-26T10:22:57.105Z,20.93
2022-10-26T10:28:01.239Z,20.94
2022-10-26T10:33:08.035Z,21.00
2022-10-26T10:38:14.539Z,21.04
2022-10-26T10:43:18.824Z,21.02
2022-10-26T10:48:22.016Z,21.02
2022-10-26T10:53:26.935Z,21.04
2022-10-26T10:58:34.100Z,21.10
2022-10-26T11:03:51.447Z,21.06
2022-10-26T11:08:56.603Z,21.18
2022-10-26T11:14:03.526Z,21.18
2022-10-26T11:19:08.398Z,21.19
2022-10-26T11:24:14.730Z,21.25
2022-10-26T11:29:23.191Z,21.25
2022-10-26T11:34:28.810Z,21.30
2022-10-26T11:39:35.931Z,21.29
2022-10-26T11:44:41.305Z,21.25
2022-10-26T11:49:46.310Z,21.29
2022-10-26T11:54:52.154Z,21.34
2022-10-26T11:59:58.256Z,21.36
2022-10-26T12:05:02.232Z,21.42
2022-10-26T12:10:05.480Z,21.36
2022-10-26T12:15:18.293Z,21.41
2022-10-26T12:20:40.669Z,21.44
2022-10-26T12:25:43.495Z,21.37
2022-10-26T12:30:47.550Z,21.37
2022-10-26T12:35:50.517Z,21.35
2022-10-26T12:41:15.134Z,21.33
2022-10-26T12:46:43.067Z,21.33
2022-10-26T12:51:45.746Z,21.34
2022-10-26T12:56:51.340Z,21.39
2022-10-26T13:02:01.046Z,21.36
2022-10-26T13:07:14.555Z,21.31
2022-10-26T13:12:17.477Z,21.59
2022-10-26T13:17:25.659Z,21.60
2022-10-26T13:22:28.390Z,21.75
2022-10-26T13:27:44.435Z,21.83
2022-10-26T13:32:51.587Z,22.01
2022-10-26T13:37:55.255Z,22.11
2022-10-26T13:42:59.151Z,22.02
2022-10-26T13:48:06.149Z,21.99
2022-10-26T13:53:11.185Z,21.93
2022-10-26T13:58:17.388Z,21.87
2022-10-26T14:03:22.110Z,21.85
2022-10-26T14:08:24.769Z,21.81
2022-10-26T14:13:28.469Z,21.62
2022-10-26T14:18:32.496Z,21.66
2022-10-26T14:23:35.999Z,21.62
2022-10-26T14:28:40.239Z,21.58
2022-10-26T14:33:44.264Z,21.58
2022-10-26T14:38:48.706Z,21.60
2022-10-26T14:43:51.406Z,21.56
2022-10-26T14:48:57.570Z,21.55
2022-10-26T14:54:01.042Z,21.57
2022-10-26T14:59:11.508Z,21.49
2022-10-26T15:04:28.069Z,21.58
2022-10-26T15:09:39.111Z,21.59
2022-10-26T15:14:41.835Z,21.59
2022-10-26T15:19:46.663Z,21.58
2022-10-26T15:24:51.601Z,21.57
2022-10-26T15:30:08.794Z,21.61
2022-10-26T15:35:30.083Z,21.55
2022-10-26T15:40:32.818Z,21.53
2022-10-26T15:45:36.212Z,21.50
2022-10-26T15:50:41.357Z,21.45
2022-10-26T15:55:44.189Z,21.34
2022-10-26T16:00:47.029Z,21.28
2022-10-26T16:05:52.781Z,21.30
2022-10-26T16:10:55.482Z,21.22
2022-10-26T16:15:58.162Z,21.26
2022-10-26T16:21:02.350Z,21.38
2022-10-26T16:26:05.353Z,21.48
2022-10-26T16:31:09.575Z,21.54
2022-10-26T16:36:13.941Z,21.60
2022-10-26T16:41:17.366Z,21.63
2022-10-26T16:46:21.154Z,21.67
2022-10-26T16:51:26.395Z,21.74
2022-10-26T16:56:30.277Z,21.76
2022-10-26T17:01:33.481Z,21.77
2022-10-26T17:06:37.624Z,21.81
2022-10-26T17:11:40.334Z,21.86
2022-10-26T17:16:42.985Z,21.90
2022-10-26T17:21:47.028Z,21.89
2022-10-26T17:26:49.739Z,21.88
2022-10-26T17:31:52.388Z,21.95
2022-10-26T17:36:56.361Z,22.02
2022-10-26T17:41:59.154Z,22.06
2022-10-26T17:47:01.835Z,22.08
2022-10-26T17:52:06.852Z,22.11
2022-10-26T17:57:09.635Z,22.14
2022-10-26T18:02:12.608Z,22.15
2022-10-26T18:07:16.736Z,22.21
2022-10-26T18:12:19.391Z,22.26
2022-10-26T18:17:22.180Z,22.23
2022-10-26T18:22:26.326Z,22.24
2022-10-26T18:27:28.994Z,22.26
2022-10-26T18:32:31.646Z,22.29
2022-10-26T18:37:35.630Z,22.33
2022-10-26T18:42:38.313Z,22.32
2022-10-26T18:47:40.942Z,22.35
2022-10-26T18:52:45.076Z,22.39
2022-10-26T18:57:47.962Z,22.38
2022-10-26T19:02:52.478Z,22.38
2022-10-26T19:07:56.828Z,22.40
2022-10-26T19:13:01.067Z,22.43
2022-10-26T19:18:03.715Z,22.44
2022-10-26T19:23:08.091Z,22.49
2022-10-26T19:28:10.869Z,22.54
2022-10-26T19:33:13.517Z,22.56
2022-10-26T19:38:17.558Z,22.58
2022-10-26T19:43:20.287Z,22.58
2022-10-26T19:48:22.959Z,22.56
2022-10-26T19:53:27.037Z,22.58
2022-10-26T19:58:30.331Z,22.60
2022-10-26T20:03:33.168Z,22.59
2022-10-26T20:08:37.169Z,22.63
2022-10-26T20:13:40.092Z,22.65
2022-10-26T20:18:46.080Z,22.60
2022-10-26T20:23:53.372Z,22.63
2022-10-26T20:28:56.022Z,22.61
2022-10-26T20:33:58.709Z,22.63
2022-10-26T20:39:03.275Z,22.60
2022-10-26T20:44:06.720Z,22.66
2022-10-26T20:49:09.756Z,22.65
2022-10-26T20:54:16.309Z,22.67
2022-10-26T20:59:22.411Z,22.66
2022-10-26T21:04:25.076Z,22.66
2022-10-26T21:09:31.689Z,22.67
2022-10-26T21:14:40.673Z,22.61
2022-10-26T21:19:43.484Z,22.57
2022-10-26T21:24:47.484Z,22.56
2022-10-26T21:29:50.387Z,22.51
2022-10-26T21:34:53.012Z,22.46
2022-10-26T21:39:57.415Z,22.45
2022-10-26T21:45:00.045Z,22.43
2022-10-26T21:50:02.777Z,22.38
2022-10-26T21:55:07.388Z,22.44
2022-10-26T22:00:10.830Z,22.35
2022-10-26T22:05:15.983Z,22.41
2022-10-26T22:10:20.065Z,22.38
2022-10-26T22:15:22.783Z,22.40
2022-10-26T22:20:25.534Z,22.37
2022-10-26T22:25:29.551Z,22.41
2022-10-26T22:30:32.228Z,22.48
2022-10-26T22:35:34.990Z,22.45
2022-10-26T22:40:39.006Z,22.46
2022-10-26T22:45:41.705Z,22.51
2022-10-26T22:50:44.407Z,22.51
2022-10-26T22:55:48.399Z,22.51
2022-10-26T23:00:51.361Z,22.54
2022-10-26T23:05:54.105Z,22.57
2022-10-26T23:11:00.945Z,22.57
2022-10-26T23:16:05.677Z,22.58
2022-10-26T23:21:08.985Z,22.60
2022-10-26T23:26:14.322Z,22.63
2022-10-26T23:31:18.458Z,22.65
2022-10-26T23:36:21.239Z,22.62
2022-10-26T23:41:25.359Z,22.67
2022-10-26T23:46:28.024Z,22.63
2022-10-26T23:51:30.787Z,22.61
2022-10-26T23:56:34.833Z,22.61
